sensor_id;sensor_type;location;lat;lon;timestamp;temperature;humidity
12893;DHT22;6514;48.606;9.222;2023-05-13T00:00:56;10.70;99.90
12893;DHT22;6514;48.606;9.222;2023-05-13T00:03:23;10.70;99.90
12893;DHT22;6514;48.606;9.222;2023-05-13T00:05:51;10.70;99.90
12893;DHT22;6514;48.606;9.222;2023-05-13T00:08:18;10.70;99.90
12893;DHT22;6514;48.606;9.222;2023-05-13T00:10:45;10.70;99.90
12893;DHT22;6514;48.606;9.222;2023-05-13T00:13:12;10.60;99.90
12893;DHT22;6514;48.606;9.222;2023-05-13T00:15:39;10.60;99.90
12893;DHT22;6514;48.606;9.222;2023-05-13T00:18:06;10.70;99.90
12893;DHT22;6514;48.606;9.222;2023-05-13T00:20:33;10.70;99.90
12893;DHT22;6514;48.606;9.222;2023-05-13T00:23:01;10.70;99.90
12893;DHT22;6514;48.606;9.222;2023-05-13T00:25:28;10.70;99.90
12893;DHT22;6514;48.606;9.222;2023-05-13T00:27:55;10.60;99.90
12893;DHT22;6514;48.606;9.222;2023-05-13T00:30:22;10.60;99.90
12893;DHT22;6514;48.606;9.222;2023-05-13T00:32:49;10.60;99.90
12893;DHT22;6514;48.606;9.222;2023-05-13T00:35:16;10.60;99.90
12893;DHT22;6514;48.606;9.222;2023-05-13T00:37:43;10.60;99.90
12893;DHT22;6514;48.606;9.222;2023-05-13T00:40:18;10.60;99.90
12893;DHT22;6514;48.606;9.222;2023-05-13T00:42:45;10.70;99.90
12893;DHT22;6514;48.606;9.222;2023-05-13T00:45:13;10.70;99.90
12893;DHT22;6514;48.606;9.222;2023-05-13T00:47:40;10.70;99.90
12893;DHT22;6514;48.606;9.222;2023-05-13T00:50:08;10.80;99.90
12893;DHT22;6514;48.606;9.222;2023-05-13T00:52:36;10.80;99.90
12893;DHT22;6514;48.606;9.222;2023-05-13T00:55:04;10.70;99.90
12893;DHT22;6514;48.606;9.222;2023-05-13T00:57:33;10.80;99.90
12893;DHT22;6514;48.606;9.222;2023-05-13T01:00:01;10.80;99.90
12893;DHT22;6514;48.606;9.222;2023-05-13T01:02:32;10.80;99.90
12893;DHT22;6514;48.606;9.222;2023-05-13T01:05:08;10.80;99.90
12893;DHT22;6514;48.606;9.222;2023-05-13T01:07:43;10.80;99.90
12893;DHT22;6514;48.606;9.222;2023-05-13T01:10:14;10.70;99.90
12893;DHT22;6514;48.606;9.222;2023-05-13T01:12:45;10.80;99.90
12893;DHT22;6514;48.606;9.222;2023-05-13T01:15:14;10.90;99.90
12893;DHT22;6514;48.606;9.222;2023-05-13T01:17:49;10.80;99.90
12893;DHT22;6514;48.606;9.222;2023-05-13T01:20:20;10.90;99.90
12893;DHT22;6514;48.606;9.222;2023-05-13T01:22:49;10.80;99.90
12893;DHT22;6514;48.606;9.222;2023-05-13T01:25:16;10.80;99.90
12893;DHT22;6514;48.606;9.222;2023-05-13T01:27:43;10.80;99.90
12893;DHT22;6514;48.606;9.222;2023-05-13T01:30:11;10.80;99.90
12893;DHT22;6514;48.606;9.222;2023-05-13T01:32:38;10.80;99.90
12893;DHT22;6514;48.606;9.222;2023-05-13T01:35:07;10.70;99.90
12893;DHT22;6514;48.606;9.222;2023-05-13T01:37:35;10.70;99.90
12893;DHT22;6514;48.606;9.222;2023-05-13T01:40:05;10.60;99.90
12893;DHT22;6514;48.606;9.222;2023-05-13T01:42:32;10.60;99.90
12893;DHT22;6514;48.606;9.222;2023-05-13T01:44:59;10.50;99.90
12893;DHT22;6514;48.606;9.222;2023-05-13T01:47:26;10.40;99.90
12893;DHT22;6514;48.606;9.222;2023-05-13T01:49:53;10.40;99.90
12893;DHT22;6514;48.606;9.222;2023-05-13T01:52:20;10.30;99.90
12893;DHT22;6514;48.606;9.222;2023-05-13T01:54:48;10.20;99.90
12893;DHT22;6514;48.606;9.222;2023-05-13T01:57:16;10.20;99.90
12893;DHT22;6514;48.606;9.222;2023-05-13T01:59:43;10.10;99.90
12893;DHT22;6514;48.606;9.222;2023-05-13T02:02:10;10.10;99.90
12893;DHT22;6514;48.606;9.222;2023-05-13T02:04:37;10.10;99.90
12893;DHT22;6514;48.606;9.222;2023-05-13T02:07:03;10.10;99.90
12893;DHT22;6514;48.606;9.222;2023-05-13T02:09:30;10.10;99.90
12893;DHT22;6514;48.606;9.222;2023-05-13T02:11:57;10.00;99.90
12893;DHT22;6514;48.606;9.222;2023-05-13T02:14:26;10.10;99.90
12893;DHT22;6514;48.606;9.222;2023-05-13T02:16:53;10.10;99.90
12893;DHT22;6514;48.606;9.222;2023-05-13T02:19:19;10.10;99.90
12893;DHT22;6514;48.606;9.222;2023-05-13T02:21:47;10.20;99.90
12893;DHT22;6514;48.606;9.222;2023-05-13T02:24:13;10.20;99.90
12893;DHT22;6514;48.606;9.222;2023-05-13T02:26:40;10.20;99.90
12893;DHT22;6514;48.606;9.222;2023-05-13T02:29:07;10.20;99.90
12893;DHT22;6514;48.606;9.222;2023-05-13T02:31:35;10.30;99.90
12893;DHT22;6514;48.606;9.222;2023-05-13T02:34:02;10.30;99.90
12893;DHT22;6514;48.606;9.222;2023-05-13T02:36:29;10.40;99.90
12893;DHT22;6514;48.606;9.222;2023-05-13T02:38:56;10.40;99.90
12893;DHT22;6514;48.606;9.222;2023-05-13T02:41:23;10.40;99.90
12893;DHT22;6514;48.606;9.222;2023-05-13T02:43:50;10.40;99.90
12893;DHT22;6514;48.606;9.222;2023-05-13T02:46:17;10.40;99.90
12893;DHT22;6514;48.606;9.222;2023-05-13T02:48:45;10.40;99.90
12893;DHT22;6514;48.606;9.222;2023-05-13T02:51:11;10.40;99.90
12893;DHT22;6514;48.606;9.222;2023-05-13T02:53:38;10.40;99.90
12893;DHT22;6514;48.606;9.222;2023-05-13T02:56:05;10.40;99.90
12893;DHT22;6514;48.606;9.222;2023-05-13T02:58:33;10.40;99.90
12893;DHT22;6514;48.606;9.222;2023-05-13T03:01:01;10.40;99.90
12893;DHT22;6514;48.606;9.222;2023-05-13T03:03:27;10.40;99.90
12893;DHT22;6514;48.606;9.222;2023-05-13T03:05:56;10.30;99.90
12893;DHT22;6514;48.606;9.222;2023-05-13T03:08:23;10.40;99.90
12893;DHT22;6514;48.606;9.222;2023-05-13T03:10:50;10.30;99.90
12893;DHT22;6514;48.606;9.222;2023-05-13T03:13:17;10.30;99.90
12893;DHT22;6514;48.606;9.222;2023-05-13T03:15:44;10.30;99.90
12893;DHT22;6514;48.606;9.222;2023-05-13T03:18:10;10.30;99.90
12893;DHT22;6514;48.606;9.222;2023-05-13T03:20:37;10.30;99.90
12893;DHT22;6514;48.606;9.222;2023-05-13T03:23:05;10.30;99.90
12893;DHT22;6514;48.606;9.222;2023-05-13T03:25:32;10.30;99.90
12893;DHT22;6514;48.606;9.222;2023-05-13T03:27:59;10.30;99.90
12893;DHT22;6514;48.606;9.222;2023-05-13T03:30:26;10.30;99.90
12893;DHT22;6514;48.606;9.222;2023-05-13T03:32:53;10.20;99.90
12893;DHT22;6514;48.606;9.222;2023-05-13T03:35:20;10.30;99.90
12893;DHT22;6514;48.606;9.222;2023-05-13T03:37:47;10.30;99.90
12893;DHT22;6514;48.606;9.222;2023-05-13T03:40:16;10.20;99.90
12893;DHT22;6514;48.606;9.222;2023-05-13T03:42:43;10.30;99.90
12893;DHT22;6514;48.606;9.222;2023-05-13T03:45:10;10.20;99.90
12893;DHT22;6514;48.606;9.222;2023-05-13T03:47:37;10.20;99.90
12893;DHT22;6514;48.606;9.222;2023-05-13T03:50:05;10.30;99.90
12893;DHT22;6514;48.606;9.222;2023-05-13T03:52:32;10.20;99.90
12893;DHT22;6514;48.606;9.222;2023-05-13T03:54:59;10.20;99.90
12893;DHT22;6514;48.606;9.222;2023-05-13T03:57:27;10.20;99.90
12893;DHT22;6514;48.606;9.222;2023-05-13T03:59:54;10.20;99.90
12893;DHT22;6514;48.606;9.222;2023-05-13T04:02:21;10.20;99.90
12893;DHT22;6514;48.606;9.222;2023-05-13T04:04:48;10.20;99.90
12893;DHT22;6514;48.606;9.222;2023-05-13T04:07:15;10.20;99.90
12893;DHT22;6514;48.606;9.222;2023-05-13T04:09:42;10.20;99.90
12893;DHT22;6514;48.606;9.222;2023-05-13T04:12:09;10.10;99.90
12893;DHT22;6514;48.606;9.222;2023-05-13T04:14:37;10.10;99.90
12893;DHT22;6514;48.606;9.222;2023-05-13T04:17:04;10.10;99.90
12893;DHT22;6514;48.606;9.222;2023-05-13T04:19:31;10.10;99.90
12893;DHT22;6514;48.606;9.222;2023-05-13T04:21:58;10.10;99.90
12893;DHT22;6514;48.606;9.222;2023-05-13T04:24:25;10.10;99.90
12893;DHT22;6514;48.606;9.222;2023-05-13T04:26:52;10.10;99.90
12893;DHT22;6514;48.606;9.222;2023-05-13T04:29:18;10.10;99.90
12893;DHT22;6514;48.606;9.222;2023-05-13T04:31:47;10.10;99.90
12893;DHT22;6514;48.606;9.222;2023-05-13T04:34:13;10.10;99.90
12893;DHT22;6514;48.606;9.222;2023-05-13T04:36:40;10.10;99.90
12893;DHT22;6514;48.606;9.222;2023-05-13T04:39:08;10.10;99.90
12893;DHT22;6514;48.606;9.222;2023-05-13T04:41:35;10.10;99.90
12893;DHT22;6514;48.606;9.222;2023-05-13T04:44:02;10.10;99.90
12893;DHT22;6514;48.606;9.222;2023-05-13T04:46:30;10.10;99.90
12893;DHT22;6514;48.606;9.222;2023-05-13T04:48:58;10.10;99.90
12893;DHT22;6514;48.606;9.222;2023-05-13T04:51:25;10.10;99.90
12893;DHT22;6514;48.606;9.222;2023-05-13T04:53:52;10.10;99.90
12893;DHT22;6514;48.606;9.222;2023-05-13T04:56:19;10.00;99.90
12893;DHT22;6514;48.606;9.222;2023-05-13T04:58:46;10.10;99.90
12893;DHT22;6514;48.606;9.222;2023-05-13T05:01:13;10.00;99.90
12893;DHT22;6514;48.606;9.222;2023-05-13T05:03:40;10.10;99.90
12893;DHT22;6514;48.606;9.222;2023-05-13T05:06:08;10.10;99.90
12893;DHT22;6514;48.606;9.222;2023-05-13T05:08:35;10.10;99.90
12893;DHT22;6514;48.606;9.222;2023-05-13T05:11:02;10.10;99.90
12893;DHT22;6514;48.606;9.222;2023-05-13T05:13:28;10.10;99.90
12893;DHT22;6514;48.606;9.222;2023-05-13T05:15:55;10.10;99.90
12893;DHT22;6514;48.606;9.222;2023-05-13T05:18:22;10.10;99.90
12893;DHT22;6514;48.606;9.222;2023-05-13T05:20:49;10.10;99.90
12893;DHT22;6514;48.606;9.222;2023-05-13T05:23:20;10.10;99.90
12893;DHT22;6514;48.606;9.222;2023-05-13T05:25:46;10.20;99.90
12893;DHT22;6514;48.606;9.222;2023-05-13T05:28:13;10.20;99.90
12893;DHT22;6514;48.606;9.222;2023-05-13T05:30:41;10.20;99.90
12893;DHT22;6514;48.606;9.222;2023-05-13T05:33:08;10.20;99.90
12893;DHT22;6514;48.606;9.222;2023-05-13T05:35:35;10.30;99.90
12893;DHT22;6514;48.606;9.222;2023-05-13T05:38:03;10.40;99.90
12893;DHT22;6514;48.606;9.222;2023-05-13T05:40:31;10.40;99.90
12893;DHT22;6514;48.606;9.222;2023-05-13T05:42:58;10.40;99.90
12893;DHT22;6514;48.606;9.222;2023-05-13T05:45:25;10.50;99.90
12893;DHT22;6514;48.606;9.222;2023-05-13T05:47:52;10.50;99.90
12893;DHT22;6514;48.606;9.222;2023-05-13T05:50:19;10.60;99.90
12893;DHT22;6514;48.606;9.222;2023-05-13T05:52:46;10.60;99.90
12893;DHT22;6514;48.606;9.222;2023-05-13T05:55:13;10.70;99.90
12893;DHT22;6514;48.606;9.222;2023-05-13T05:57:41;10.70;99.90
12893;DHT22;6514;48.606;9.222;2023-05-13T06:00:09;10.80;99.90
12893;DHT22;6514;48.606;9.222;2023-05-13T06:02:36;10.90;99.90
12893;DHT22;6514;48.606;9.222;2023-05-13T06:05:04;10.90;99.90
12893;DHT22;6514;48.606;9.222;2023-05-13T06:07:31;11.00;99.90
12893;DHT22;6514;48.606;9.222;2023-05-13T06:09:58;11.00;99.90
12893;DHT22;6514;48.606;9.222;2023-05-13T06:12:25;11.10;99.90
12893;DHT22;6514;48.606;9.222;2023-05-13T06:14:53;11.10;99.90
12893;DHT22;6514;48.606;9.222;2023-05-13T06:17:20;11.10;99.90
12893;DHT22;6514;48.606;9.222;2023-05-13T06:19:47;11.20;99.90
12893;DHT22;6514;48.606;9.222;2023-05-13T06:22:13;11.20;99.90
12893;DHT22;6514;48.606;9.222;2023-05-13T06:24:40;11.20;99.90
12893;DHT22;6514;48.606;9.222;2023-05-13T06:27:09;11.20;99.90
12893;DHT22;6514;48.606;9.222;2023-05-13T06:29:36;11.20;99.90
12893;DHT22;6514;48.606;9.222;2023-05-13T06:32:05;11.20;99.90
12893;DHT22;6514;48.606;9.222;2023-05-13T06:34:32;11.20;99.90
12893;DHT22;6514;48.606;9.222;2023-05-13T06:36:59;11.20;99.90
12893;DHT22;6514;48.606;9.222;2023-05-13T06:39:26;11.20;99.90
12893;DHT22;6514;48.606;9.222;2023-05-13T06:41:52;11.30;99.90
12893;DHT22;6514;48.606;9.222;2023-05-13T06:44:19;11.40;99.90
12893;DHT22;6514;48.606;9.222;2023-05-13T06:46:46;11.40;99.90
12893;DHT22;6514;48.606;9.222;2023-05-13T06:49:15;11.50;99.90
12893;DHT22;6514;48.606;9.222;2023-05-13T06:51:41;11.60;99.90
12893;DHT22;6514;48.606;9.222;2023-05-13T06:54:08;11.70;99.90
12893;DHT22;6514;48.606;9.222;2023-05-13T06:56:35;11.80;99.90
12893;DHT22;6514;48.606;9.222;2023-05-13T06:59:02;11.80;99.90
12893;DHT22;6514;48.606;9.222;2023-05-13T07:01:29;11.90;99.90
12893;DHT22;6514;48.606;9.222;2023-05-13T07:03:56;12.00;99.90
12893;DHT22;6514;48.606;9.222;2023-05-13T07:06:24;12.00;99.90
12893;DHT22;6514;48.606;9.222;2023-05-13T07:08:51;12.10;99.90
12893;DHT22;6514;48.606;9.222;2023-05-13T07:11:18;12.20;99.90
12893;DHT22;6514;48.606;9.222;2023-05-13T07:13:44;12.20;99.90
12893;DHT22;6514;48.606;9.222;2023-05-13T07:16:12;12.30;99.90
12893;DHT22;6514;48.606;9.222;2023-05-13T07:18:39;12.40;99.90
12893;DHT22;6514;48.606;9.222;2023-05-13T07:21:06;12.60;99.90
12893;DHT22;6514;48.606;9.222;2023-05-13T07:23:34;12.90;99.90
12893;DHT22;6514;48.606;9.222;2023-05-13T07:26:01;13.10;99.90
12893;DHT22;6514;48.606;9.222;2023-05-13T07:28:28;13.30;99.90
12893;DHT22;6514;48.606;9.222;2023-05-13T07:30:55;13.40;99.90
12893;DHT22;6514;48.606;9.222;2023-05-13T07:33:22;13.60;99.90
12893;DHT22;6514;48.606;9.222;2023-05-13T07:35:49;13.70;99.90
12893;DHT22;6514;48.606;9.222;2023-05-13T07:38:16;13.90;99.90
12893;DHT22;6514;48.606;9.222;2023-05-13T07:40:44;14.00;99.90
12893;DHT22;6514;48.606;9.222;2023-05-13T07:43:11;14.20;99.90
12893;DHT22;6514;48.606;9.222;2023-05-13T07:45:39;14.20;99.90
12893;DHT22;6514;48.606;9.222;2023-05-13T07:48:06;14.30;99.90
12893;DHT22;6514;48.606;9.222;2023-05-13T07:50:34;14.20;99.90
12893;DHT22;6514;48.606;9.222;2023-05-13T07:53:01;14.10;99.90
12893;DHT22;6514;48.606;9.222;2023-05-13T07:55:28;13.90;99.90
12893;DHT22;6514;48.606;9.222;2023-05-13T07:57:57;13.90;99.90
12893;DHT22;6514;48.606;9.222;2023-05-13T08:00:24;13.90;99.90
12893;DHT22;6514;48.606;9.222;2023-05-13T08:02:51;13.70;99.90
12893;DHT22;6514;48.606;9.222;2023-05-13T08:05:18;13.50;99.90
12893;DHT22;6514;48.606;9.222;2023-05-13T08:07:44;13.40;99.90
12893;DHT22;6514;48.606;9.222;2023-05-13T08:10:11;13.30;99.90
12893;DHT22;6514;48.606;9.222;2023-05-13T08:12:38;13.40;99.90
12893;DHT22;6514;48.606;9.222;2023-05-13T08:15:08;13.40;99.90
12893;DHT22;6514;48.606;9.222;2023-05-13T08:17:36;13.40;99.90
12893;DHT22;6514;48.606;9.222;2023-05-13T08:20:04;13.40;99.90
12893;DHT22;6514;48.606;9.222;2023-05-13T08:22:31;13.40;99.90
12893;DHT22;6514;48.606;9.222;2023-05-13T08:24:58;13.40;99.90
12893;DHT22;6514;48.606;9.222;2023-05-13T08:27:25;13.40;99.90
12893;DHT22;6514;48.606;9.222;2023-05-13T08:29:52;13.40;99.90
12893;DHT22;6514;48.606;9.222;2023-05-13T08:32:20;13.40;99.90
12893;DHT22;6514;48.606;9.222;2023-05-13T08:34:47;13.50;99.90
12893;DHT22;6514;48.606;9.222;2023-05-13T08:37:14;13.50;99.90
12893;DHT22;6514;48.606;9.222;2023-05-13T08:39:41;13.50;99.90
12893;DHT22;6514;48.606;9.222;2023-05-13T08:42:09;13.50;99.90
12893;DHT22;6514;48.606;9.222;2023-05-13T08:44:38;13.60;99.90
12893;DHT22;6514;48.606;9.222;2023-05-13T08:47:25;13.80;99.90
12893;DHT22;6514;48.606;9.222;2023-05-13T08:49:57;14.10;99.90
12893;DHT22;6514;48.606;9.222;2023-05-13T08:52:24;14.10;99.90
12893;DHT22;6514;48.606;9.222;2023-05-13T08:54:52;14.00;99.90
12893;DHT22;6514;48.606;9.222;2023-05-13T08:57:19;13.90;99.90
12893;DHT22;6514;48.606;9.222;2023-05-13T08:59:46;13.90;99.90
12893;DHT22;6514;48.606;9.222;2023-05-13T09:02:13;13.80;99.90
12893;DHT22;6514;48.606;9.222;2023-05-13T09:04:42;13.60;99.90
12893;DHT22;6514;48.606;9.222;2023-05-13T09:07:09;13.60;99.90
12893;DHT22;6514;48.606;9.222;2023-05-13T09:09:37;13.40;99.90
12893;DHT22;6514;48.606;9.222;2023-05-13T09:12:04;13.40;99.90
12893;DHT22;6514;48.606;9.222;2023-05-13T09:14:31;13.30;99.90
12893;DHT22;6514;48.606;9.222;2023-05-13T09:17:00;13.20;99.90
12893;DHT22;6514;48.606;9.222;2023-05-13T09:19:27;13.20;99.90
12893;DHT22;6514;48.606;9.222;2023-05-13T09:21:55;13.20;99.90
12893;DHT22;6514;48.606;9.222;2023-05-13T09:24:22;13.10;99.90
12893;DHT22;6514;48.606;9.222;2023-05-13T09:26:50;13.10;99.90
12893;DHT22;6514;48.606;9.222;2023-05-13T09:29:19;13.10;99.90
12893;DHT22;6514;48.606;9.222;2023-05-13T09:31:48;13.00;99.90
12893;DHT22;6514;48.606;9.222;2023-05-13T09:34:27;13.00;99.90
12893;DHT22;6514;48.606;9.222;2023-05-13T09:36:57;13.10;99.90
12893;DHT22;6514;48.606;9.222;2023-05-13T09:39:25;13.10;99.90
12893;DHT22;6514;48.606;9.222;2023-05-13T09:41:52;13.10;99.90
12893;DHT22;6514;48.606;9.222;2023-05-13T09:44:20;13.20;99.90
12893;DHT22;6514;48.606;9.222;2023-05-13T09:46:47;13.20;99.90
12893;DHT22;6514;48.606;9.222;2023-05-13T09:49:16;13.30;99.90
12893;DHT22;6514;48.606;9.222;2023-05-13T09:51:43;13.30;99.90
12893;DHT22;6514;48.606;9.222;2023-05-13T09:54:12;13.30;99.90
12893;DHT22;6514;48.606;9.222;2023-05-13T09:56:39;13.20;99.90
12893;DHT22;6514;48.606;9.222;2023-05-13T09:59:06;13.10;99.90
12893;DHT22;6514;48.606;9.222;2023-05-13T10:01:34;13.10;99.90
12893;DHT22;6514;48.606;9.222;2023-05-13T10:04:01;13.00;99.90
12893;DHT22;6514;48.606;9.222;2023-05-13T10:06:30;13.00;99.90
12893;DHT22;6514;48.606;9.222;2023-05-13T10:08:59;12.90;99.90
12893;DHT22;6514;48.606;9.222;2023-05-13T10:11:29;12.80;99.90
12893;DHT22;6514;48.606;9.222;2023-05-13T10:14:00;12.80;99.90
12893;DHT22;6514;48.606;9.222;2023-05-13T10:16:28;12.70;99.90
12893;DHT22;6514;48.606;9.222;2023-05-13T10:18:56;12.70;99.90
12893;DHT22;6514;48.606;9.222;2023-05-13T10:21:23;12.60;99.90
12893;DHT22;6514;48.606;9.222;2023-05-13T10:23:51;12.60;99.90
12893;DHT22;6514;48.606;9.222;2023-05-13T10:26:19;12.70;99.90
12893;DHT22;6514;48.606;9.222;2023-05-13T10:28:47;12.70;99.90
12893;DHT22;6514;48.606;9.222;2023-05-13T10:31:15;12.80;99.90
12893;DHT22;6514;48.606;9.222;2023-05-13T10:33:42;12.80;99.90
12893;DHT22;6514;48.606;9.222;2023-05-13T10:36:20;12.90;99.90
12893;DHT22;6514;48.606;9.222;2023-05-13T10:39:06;12.90;99.90
12893;DHT22;6514;48.606;9.222;2023-05-13T10:42:24;12.90;99.90
12893;DHT22;6514;48.606;9.222;2023-05-13T10:44:54;12.90;99.90
12893;DHT22;6514;48.606;9.222;2023-05-13T10:47:23;13.00;99.90
12893;DHT22;6514;48.606;9.222;2023-05-13T10:49:50;13.00;99.90
12893;DHT22;6514;48.606;9.222;2023-05-13T10:52:18;13.10;99.90
12893;DHT22;6514;48.606;9.222;2023-05-13T10:54:59;13.20;99.90
12893;DHT22;6514;48.606;9.222;2023-05-13T10:57:27;13.30;99.90
12893;DHT22;6514;48.606;9.222;2023-05-13T11:00:15;13.40;99.90
12893;DHT22;6514;48.606;9.222;2023-05-13T11:02:44;13.50;99.90
12893;DHT22;6514;48.606;9.222;2023-05-13T11:05:18;13.70;99.90
12893;DHT22;6514;48.606;9.222;2023-05-13T11:07:54;14.10;99.90
12893;DHT22;6514;48.606;9.222;2023-05-13T11:10:25;14.40;99.90
12893;DHT22;6514;48.606;9.222;2023-05-13T11:13:08;14.70;99.90
12893;DHT22;6514;48.606;9.222;2023-05-13T11:15:48;15.00;99.90
12893;DHT22;6514;48.606;9.222;2023-05-13T11:18:15;15.20;99.90
12893;DHT22;6514;48.606;9.222;2023-05-13T11:20:45;15.30;99.90
12893;DHT22;6514;48.606;9.222;2023-05-13T11:23:19;15.30;99.90
12893;DHT22;6514;48.606;9.222;2023-05-13T11:25:46;15.30;99.90
12893;DHT22;6514;48.606;9.222;2023-05-13T11:28:53;15.30;99.90
12893;DHT22;6514;48.606;9.222;2023-05-13T11:31:20;15.10;99.90
12893;DHT22;6514;48.606;9.222;2023-05-13T11:34:06;15.00;99.90
12893;DHT22;6514;48.606;9.222;2023-05-13T11:36:34;14.90;99.90
12893;DHT22;6514;48.606;9.222;2023-05-13T11:39:08;14.90;99.90
12893;DHT22;6514;48.606;9.222;2023-05-13T11:41:41;14.80;99.90
12893;DHT22;6514;48.606;9.222;2023-05-13T11:44:10;14.80;99.90
12893;DHT22;6514;48.606;9.222;2023-05-13T11:46:37;14.80;99.90
12893;DHT22;6514;48.606;9.222;2023-05-13T11:49:05;14.80;99.90
12893;DHT22;6514;48.606;9.222;2023-05-13T11:51:33;14.80;99.90
12893;DHT22;6514;48.606;9.222;2023-05-13T11:54:01;15.00;99.90
12893;DHT22;6514;48.606;9.222;2023-05-13T11:56:28;15.10;99.90
12893;DHT22;6514;48.606;9.222;2023-05-13T12:01:38;15.10;99.90
12893;DHT22;6514;48.606;9.222;2023-05-13T12:04:05;15.20;99.90
12893;DHT22;6514;48.606;9.222;2023-05-13T12:06:33;15.10;99.90
12893;DHT22;6514;48.606;9.222;2023-05-13T12:09:04;15.10;99.90
12893;DHT22;6514;48.606;9.222;2023-05-13T12:11:32;15.20;99.90
12893;DHT22;6514;48.606;9.222;2023-05-13T12:13:59;15.40;99.90
12893;DHT22;6514;48.606;9.222;2023-05-13T12:16:26;15.50;99.90
12893;DHT22;6514;48.606;9.222;2023-05-13T12:18:58;15.60;99.90
12893;DHT22;6514;48.606;9.222;2023-05-13T12:21:30;15.50;99.90
12893;DHT22;6514;48.606;9.222;2023-05-13T12:23:57;15.50;99.90
12893;DHT22;6514;48.606;9.222;2023-05-13T12:26:24;15.40;99.90
12893;DHT22;6514;48.606;9.222;2023-05-13T12:28:56;15.40;99.90
12893;DHT22;6514;48.606;9.222;2023-05-13T12:31:23;15.40;99.90
12893;DHT22;6514;48.606;9.222;2023-05-13T12:33:50;15.30;99.90
12893;DHT22;6514;48.606;9.222;2023-05-13T12:36:20;15.30;99.90
12893;DHT22;6514;48.606;9.222;2023-05-13T12:38:56;15.30;99.90
12893;DHT22;6514;48.606;9.222;2023-05-13T12:41:24;15.50;99.90
12893;DHT22;6514;48.606;9.222;2023-05-13T12:43:56;15.50;99.90
12893;DHT22;6514;48.606;9.222;2023-05-13T12:46:23;15.60;99.90
12893;DHT22;6514;48.606;9.222;2023-05-13T12:48:53;15.60;99.90
12893;DHT22;6514;48.606;9.222;2023-05-13T12:51:22;15.60;99.90
12893;DHT22;6514;48.606;9.222;2023-05-13T12:53:49;15.60;99.90
12893;DHT22;6514;48.606;9.222;2023-05-13T12:56:18;15.70;99.90
12893;DHT22;6514;48.606;9.222;2023-05-13T12:58:45;15.90;99.90
12893;DHT22;6514;48.606;9.222;2023-05-13T13:01:12;16.00;99.90
12893;DHT22;6514;48.606;9.222;2023-05-13T13:03:39;16.00;99.90
12893;DHT22;6514;48.606;9.222;2023-05-13T13:06:07;15.90;99.90
12893;DHT22;6514;48.606;9.222;2023-05-13T13:08:36;15.80;99.90
12893;DHT22;6514;48.606;9.222;2023-05-13T13:11:03;15.90;99.90
12893;DHT22;6514;48.606;9.222;2023-05-13T13:13:30;16.00;99.90
12893;DHT22;6514;48.606;9.222;2023-05-13T13:15:58;15.90;99.90
12893;DHT22;6514;48.606;9.222;2023-05-13T13:18:25;15.80;99.90
12893;DHT22;6514;48.606;9.222;2023-05-13T13:20:52;15.70;99.90
12893;DHT22;6514;48.606;9.222;2023-05-13T13:23:19;15.40;99.90
12893;DHT22;6514;48.606;9.222;2023-05-13T13:25:47;15.20;99.90
12893;DHT22;6514;48.606;9.222;2023-05-13T13:28:14;15.10;99.90
12893;DHT22;6514;48.606;9.222;2023-05-13T13:30:41;15.00;99.90
12893;DHT22;6514;48.606;9.222;2023-05-13T13:33:15;15.00;99.90
12893;DHT22;6514;48.606;9.222;2023-05-13T13:35:42;15.00;99.90
12893;DHT22;6514;48.606;9.222;2023-05-13T13:38:09;15.10;99.90
12893;DHT22;6514;48.606;9.222;2023-05-13T13:40:36;15.20;99.90
12893;DHT22;6514;48.606;9.222;2023-05-13T13:43:05;15.40;99.90
12893;DHT22;6514;48.606;9.222;2023-05-13T13:45:32;15.60;99.90
12893;DHT22;6514;48.606;9.222;2023-05-13T13:47:59;15.80;99.90
12893;DHT22;6514;48.606;9.222;2023-05-13T13:50:26;16.20;99.90
12893;DHT22;6514;48.606;9.222;2023-05-13T13:52:53;16.40;99.90
12893;DHT22;6514;48.606;9.222;2023-05-13T13:55:21;16.50;99.90
12893;DHT22;6514;48.606;9.222;2023-05-13T13:57:48;16.60;99.90
12893;DHT22;6514;48.606;9.222;2023-05-13T14:00:18;16.70;99.90
12893;DHT22;6514;48.606;9.222;2023-05-13T14:02:44;16.80;99.90
12893;DHT22;6514;48.606;9.222;2023-05-13T14:05:12;16.80;99.90
12893;DHT22;6514;48.606;9.222;2023-05-13T14:07:40;16.70;99.90
12893;DHT22;6514;48.606;9.222;2023-05-13T14:10:08;16.40;99.90
12893;DHT22;6514;48.606;9.222;2023-05-13T14:12:36;16.40;99.90
12893;DHT22;6514;48.606;9.222;2023-05-13T14:15:03;16.40;99.90
12893;DHT22;6514;48.606;9.222;2023-05-13T14:17:32;16.40;99.90
12893;DHT22;6514;48.606;9.222;2023-05-13T14:19:59;16.30;99.90
12893;DHT22;6514;48.606;9.222;2023-05-13T14:22:26;16.20;99.90
12893;DHT22;6514;48.606;9.222;2023-05-13T14:24:53;16.20;99.90
12893;DHT22;6514;48.606;9.222;2023-05-13T14:27:20;16.10;99.90
12893;DHT22;6514;48.606;9.222;2023-05-13T14:29:49;16.20;99.90
12893;DHT22;6514;48.606;9.222;2023-05-13T14:32:16;16.20;99.90
12893;DHT22;6514;48.606;9.222;2023-05-13T14:34:44;16.20;99.90
12893;DHT22;6514;48.606;9.222;2023-05-13T14:37:11;16.20;99.90
12893;DHT22;6514;48.606;9.222;2023-05-13T14:39:38;16.30;99.90
12893;DHT22;6514;48.606;9.222;2023-05-13T14:42:05;16.40;99.90
12893;DHT22;6514;48.606;9.222;2023-05-13T14:44:32;16.50;99.90
12893;DHT22;6514;48.606;9.222;2023-05-13T14:46:59;16.70;99.90
12893;DHT22;6514;48.606;9.222;2023-05-13T14:49:26;16.90;99.90
12893;DHT22;6514;48.606;9.222;2023-05-13T14:51:54;17.10;99.90
12893;DHT22;6514;48.606;9.222;2023-05-13T14:54:21;17.10;99.90
12893;DHT22;6514;48.606;9.222;2023-05-13T14:56:49;17.10;99.90
12893;DHT22;6514;48.606;9.222;2023-05-13T14:59:17;17.00;99.90
12893;DHT22;6514;48.606;9.222;2023-05-13T15:01:44;16.90;99.90
12893;DHT22;6514;48.606;9.222;2023-05-13T15:04:11;16.80;99.90
12893;DHT22;6514;48.606;9.222;2023-05-13T15:06:38;16.70;99.90
12893;DHT22;6514;48.606;9.222;2023-05-13T15:09:06;16.60;99.90
12893;DHT22;6514;48.606;9.222;2023-05-13T15:11:33;16.40;99.90
12893;DHT22;6514;48.606;9.222;2023-05-13T15:14:01;16.20;99.90
12893;DHT22;6514;48.606;9.222;2023-05-13T15:16:29;16.00;99.90
12893;DHT22;6514;48.606;9.222;2023-05-13T15:18:56;15.80;99.90
12893;DHT22;6514;48.606;9.222;2023-05-13T15:21:23;15.60;99.90
12893;DHT22;6514;48.606;9.222;2023-05-13T15:23:50;15.50;99.90
12893;DHT22;6514;48.606;9.222;2023-05-13T15:26:18;15.30;99.90
12893;DHT22;6514;48.606;9.222;2023-05-13T15:28:45;15.20;99.90
12893;DHT22;6514;48.606;9.222;2023-05-13T15:31:12;15.10;99.90
12893;DHT22;6514;48.606;9.222;2023-05-13T15:33:39;15.00;99.90
12893;DHT22;6514;48.606;9.222;2023-05-13T15:36:07;14.90;99.90
12893;DHT22;6514;48.606;9.222;2023-05-13T15:38:35;14.80;99.90
12893;DHT22;6514;48.606;9.222;2023-05-13T15:41:02;14.70;99.90
12893;DHT22;6514;48.606;9.222;2023-05-13T15:43:30;14.70;99.90
12893;DHT22;6514;48.606;9.222;2023-05-13T15:45:59;14.70;99.90
12893;DHT22;6514;48.606;9.222;2023-05-13T15:48:26;14.90;99.90
12893;DHT22;6514;48.606;9.222;2023-05-13T15:50:52;15.10;99.90
12893;DHT22;6514;48.606;9.222;2023-05-13T15:53:20;15.30;99.90